Time;durP1;ratioP1;P1;durP2;ratioP2;P2;SDS_P1;SDS_P2;PMS_P1;PMS_P2;Temp;Humidity;BMP_temperature;BMP_pressure;BME280_temperature;BME280_humidity;BME280_pressure;Samples;Min_cycle;Max_cycle;Signal;HPM_P1;HPM_P2
2021/07/21 00:00:24;;;;;;;6.60;3.90;;;;;;;;;;5032862;28;20033;-68
2021/07/21 00:02:50;;;;;;;5.95;4.55;;;;;;;;;;5032887;28;20037;-68
2021/07/21 00:05:18;;;;;;;9.98;6.18;;;;;;;;;;5032769;28;20076;-67
2021/07/21 00:07:44;;;;;;;8.55;6.35;;;;;;;;;;5032787;28;20175;-69
2021/07/21 00:10:10;;;;;;;7.55;5.35;;;;;;;;;;5032597;28;20029;-68
2021/07/21 00:15:23;;;;;;;6.13;4.20;;;;;;;;;;5032782;28;20090;-69
2021/07/21 00:17:58;;;;;;;5.50;3.80;;;;;;;;;;5032578;28;20029;-68
2021/07/21 00:20:24;;;;;;;6.22;4.07;;;;;;;;;;5033264;28;20024;-70
2021/07/21 00:22:50;;;;;;;7.25;4.50;;;;;;;;;;5032928;28;20073;-68
2021/07/21 00:25:17;;;;;;;5.03;4.40;;;;;;;;;;5032850;28;20083;-67
2021/07/21 00:27:43;;;;;;;6.38;4.20;;;;;;;;;;5032671;28;20507;-68
2021/07/21 00:30:11;;;;;;;6.85;4.15;;;;;;;;;;5032528;28;20109;-68
2021/07/21 00:32:38;;;;;;;6.72;4.53;;;;;;;;;;5032509;28;20026;-68
2021/07/21 00:35:05;;;;;;;6.03;3.95;;;;;;;;;;5032196;28;20064;-68
2021/07/21 00:37:32;;;;;;;6.03;4.28;;;;;;;;;;5032100;28;20049;-68
2021/07/21 00:39:58;;;;;;;7.18;4.57;;;;;;;;;;5032605;28;20057;-67
2021/07/21 00:42:24;;;;;;;8.18;4.65;;;;;;;;;;5032136;28;20091;-67
2021/07/21 00:44:53;;;;;;;5.88;4.10;;;;;;;;;;5032292;28;20498;-67
2021/07/21 00:47:19;;;;;;;7.32;4.03;;;;;;;;;;5032337;28;20064;-67
2021/07/21 00:49:45;;;;;;;4.72;4.20;;;;;;;;;;5030267;28;20036;-67
2021/07/21 00:52:11;;;;;;;6.38;4.18;;;;;;;;;;5032334;28;20075;-66
2021/07/21 00:54:38;;;;;;;4.40;4.00;;;;;;;;;;5032228;28;20029;-67
2021/07/21 00:57:04;;;;;;;7.13;4.22;;;;;;;;;;5032415;28;20033;-67
2021/07/21 00:59:34;;;;;;;6.63;4.68;;;;;;;;;;5032106;28;20034;-68
2021/07/21 01:02:00;;;;;;;5.75;4.18;;;;;;;;;;5032201;28;20033;-66
2021/07/21 01:04:29;;;;;;;5.82;4.63;;;;;;;;;;5032077;28;20029;-67
2021/07/21 01:06:55;;;;;;;5.30;4.30;;;;;;;;;;5032066;28;20029;-68
2021/07/21 01:09:21;;;;;;;7.10;4.65;;;;;;;;;;5032089;28;20018;-67
2021/07/21 01:11:57;;;;;;;8.32;4.72;;;;;;;;;;5032372;28;20112;-68
2021/07/21 01:14:37;;;;;;;6.43;5.07;;;;;;;;;;5032076;28;20049;-66
2021/07/21 01:17:05;;;;;;;6.97;5.38;;;;;;;;;;5035339;28;20119;-67
2021/07/21 01:19:47;;;;;;;7.13;4.72;;;;;;;;;;5036866;28;20018;-67
2021/07/21 01:22:16;;;;;;;8.45;5.32;;;;;;;;;;5039700;28;20388;-67
2021/07/21 01:24:45;;;;;;;8.27;5.30;;;;;;;;;;5035816;28;20057;-67
2021/07/21 01:27:16;;;;;;;6.80;5.38;;;;;;;;;;5035846;28;20074;-67
2021/07/21 01:29:44;;;;;;;7.13;5.50;;;;;;;;;;5035733;28;20033;-68
2021/07/21 01:32:11;;;;;;;6.93;5.40;;;;;;;;;;5035642;28;20108;-67
2021/07/21 01:34:37;;;;;;;7.03;5.45;;;;;;;;;;5035413;28;20388;-67
2021/07/21 01:37:04;;;;;;;7.72;5.93;;;;;;;;;;5020360;28;20436;-67
2021/07/21 01:39:32;;;;;;;7.22;5.38;;;;;;;;;;5016008;28;20109;-67
2021/07/21 01:42:03;;;;;;;7.85;5.30;;;;;;;;;;5015505;28;20092;-67
2021/07/21 01:44:30;;;;;;;10.15;5.57;;;;;;;;;;5035025;28;20021;-68
2021/07/21 01:46:59;;;;;;;7.90;5.70;;;;;;;;;;5035197;28;20017;-66
2021/07/21 01:49:27;;;;;;;8.52;5.88;;;;;;;;;;5035278;28;20518;-67
2021/07/21 01:51:55;;;;;;;7.00;5.65;;;;;;;;;;5035379;28;20029;-66
2021/07/21 01:54:21;;;;;;;10.45;5.68;;;;;;;;;;5035279;28;20505;-67
2021/07/21 01:56:48;;;;;;;8.55;6.20;;;;;;;;;;5035277;28;20087;-67
2021/07/21 01:59:14;;;;;;;6.38;5.40;;;;;;;;;;5035287;28;20087;-67
2021/07/21 02:01:40;;;;;;;8.75;5.65;;;;;;;;;;5035079;28;20079;-67
2021/07/21 02:04:07;;;;;;;8.18;5.82;;;;;;;;;;5035147;28;20087;-67
2021/07/21 02:06:34;;;;;;;6.80;6.00;;;;;;;;;;5035145;28;20168;-67
2021/07/21 02:09:01;;;;;;;8.77;5.93;;;;;;;;;;5017487;28;20427;-66
2021/07/21 02:11:27;;;;;;;7.72;6.03;;;;;;;;;;5036391;28;20064;-67
2021/07/21 02:13:57;;;;;;;9.95;5.88;;;;;;;;;;5035290;28;20025;-66
2021/07/21 02:16:24;;;;;;;8.82;6.10;;;;;;;;;;5035245;28;20032;-67
2021/07/21 02:18:52;;;;;;;8.85;6.18;;;;;;;;;;5035040;28;20021;-66
2021/07/21 02:21:18;;;;;;;8.25;5.95;;;;;;;;;;5034835;28;20041;-68
2021/07/21 02:23:46;;;;;;;8.07;5.72;;;;;;;;;;5017072;28;20645;-67
2021/07/21 02:26:13;;;;;;;7.28;5.65;;;;;;;;;;5034728;28;20079;-68
2021/07/21 02:28:40;;;;;;;8.35;5.50;;;;;;;;;;5033698;28;20025;-68
2021/07/21 02:31:11;;;;;;;12.90;6.45;;;;;;;;;;5034704;28;20047;-67
2021/07/21 02:33:44;;;;;;;8.63;5.93;;;;;;;;;;5034721;28;20025;-65
2021/07/21 02:36:10;;;;;;;8.98;5.75;;;;;;;;;;5026383;28;20541;-68
2021/07/21 02:38:38;;;;;;;6.90;6.05;;;;;;;;;;5014614;28;20032;-69
2021/07/21 02:41:04;;;;;;;11.73;6.95;;;;;;;;;;5014893;28;20026;-66
2021/07/21 02:43:30;;;;;;;8.93;6.20;;;;;;;;;;5025934;28;20041;-68
2021/07/21 02:45:56;;;;;;;8.20;5.93;;;;;;;;;;5034174;28;20022;-69
2021/07/21 02:48:22;;;;;;;10.75;6.47;;;;;;;;;;5034283;28;20036;-68
2021/07/21 02:50:50;;;;;;;10.40;6.13;;;;;;;;;;5034268;28;20515;-68
2021/07/21 02:53:25;;;;;;;10.73;6.53;;;;;;;;;;5034107;28;20021;-67
2021/07/21 02:55:51;;;;;;;;;;;;;;;;;;5034555;28;20075;-65
2021/07/21 02:58:34;;;;;;;10.63;7.18;;;;;;;;;;5034175;28;19909;-68
2021/07/21 03:01:02;;;;;;;9.45;6.85;;;;;;;;;;5034274;28;20075;-68
2021/07/21 03:03:29;;;;;;;14.25;6.32;;;;;;;;;;5033990;28;20108;-66
2021/07/21 03:05:57;;;;;;;9.02;6.20;;;;;;;;;;5033916;28;20036;-66
2021/07/21 03:08:25;;;;;;;10.77;6.13;;;;;;;;;;5034179;28;20361;-68
2021/07/21 03:10:53;;;;;;;8.52;5.93;;;;;;;;;;5033698;28;20076;-66
2021/07/21 03:13:20;;;;;;;9.20;6.72;;;;;;;;;;5033991;28;20045;-66
2021/07/21 03:15:48;;;;;;;12.13;6.70;;;;;;;;;;5033836;28;20029;-68
2021/07/21 03:18:16;;;;;;;9.10;6.13;;;;;;;;;;5033679;28;20380;-68
2021/07/21 03:20:42;;;;;;;9.00;6.30;;;;;;;;;;5033591;28;20022;-68
2021/07/21 03:23:08;;;;;;;10.00;5.85;;;;;;;;;;5033793;28;20056;-69
2021/07/21 03:25:37;;;;;;;7.32;5.53;;;;;;;;;;5033841;28;20376;-68
2021/07/21 03:28:05;;;;;;;9.02;5.95;;;;;;;;;;5033410;28;20068;-67
2021/07/21 03:30:31;;;;;;;6.68;5.55;;;;;;;;;;5033325;28;20029;-69
2021/07/21 03:32:58;;;;;;;11.82;6.35;;;;;;;;;;5015806;28;20124;-67
2021/07/21 03:35:25;;;;;;;8.25;5.60;;;;;;;;;;5031743;28;20080;-68
2021/07/21 03:37:52;;;;;;;8.52;6.03;;;;;;;;;;5013144;28;20022;-68
2021/07/21 03:40:19;;;;;;;10.38;6.10;;;;;;;;;;5013510;28;20030;-67
2021/07/21 03:42:45;;;;;;;9.45;6.57;;;;;;;;;;5018481;28;20030;-66
2021/07/21 03:45:13;;;;;;;8.38;5.43;;;;;;;;;;5033109;28;20486;-67
2021/07/21 03:47:43;;;;;;;7.82;6.32;;;;;;;;;;5033155;28;20041;-67
2021/07/21 03:50:09;;;;;;;7.13;5.90;;;;;;;;;;5033141;28;20480;-67
2021/07/21 03:52:40;;;;;;;7.18;5.70;;;;;;;;;;5033079;28;20100;-66
2021/07/21 03:55:07;;;;;;;9.73;6.70;;;;;;;;;;5033100;28;20376;-68
2021/07/21 03:57:33;;;;;;;7.65;5.63;;;;;;;;;;5032753;28;20034;-68
2021/07/21 03:59:59;;;;;;;8.38;5.75;;;;;;;;;;5032994;28;20101;-67
2021/07/21 04:02:26;;;;;;;13.07;7.30;;;;;;;;;;5032892;28;20082;-67
2021/07/21 04:04:54;;;;;;;8.57;5.90;;;;;;;;;;5032910;28;20025;-68
2021/07/21 04:07:20;;;;;;;7.88;5.70;;;;;;;;;;5032846;28;20029;-68
2021/07/21 04:09:50;;;;;;;10.88;6.80;;;;;;;;;;5032751;28;20507;-68
2021/07/21 04:12:17;;;;;;;14.48;7.45;;;;;;;;;;5032630;28;20109;-68
2021/07/21 04:14:44;;;;;;;8.48;5.75;;;;;;;;;;5032728;28;20033;-68
2021/07/21 04:17:10;;;;;;;8.90;6.55;;;;;;;;;;5032902;28;20488;-68
2021/07/21 04:19:38;;;;;;;9.65;6.57;;;;;;;;;;5032718;28;20101;-68
2021/07/21 04:22:04;;;;;;;9.90;6.38;;;;;;;;;;5032669;28;20025;-68
2021/07/21 04:24:30;;;;;;;11.88;6.43;;;;;;;;;;5032652;28;20097;-68
2021/07/21 04:26:57;;;;;;;7.80;5.97;;;;;;;;;;5032312;28;20031;-69
2021/07/21 04:29:24;;;;;;;7.85;5.88;;;;;;;;;;5031690;28;20029;-68
2021/07/21 04:31:51;;;;;;;8.38;6.03;;;;;;;;;;5030571;28;20034;-69
2021/07/21 04:34:17;;;;;;;10.57;6.50;;;;;;;;;;5030709;28;20040;-68
2021/07/21 04:36:44;;;;;;;8.38;5.70;;;;;;;;;;5018726;28;20380;-68
2021/07/21 04:39:13;;;;;;;10.32;5.78;;;;;;;;;;5013637;28;20060;-67
2021/07/21 04:41:45;;;;;;;9.43;6.30;;;;;;;;;;5013721;28;20389;-69
2021/07/21 04:44:11;;;;;;;8.13;6.47;;;;;;;;;;5013673;28;20500;-67
2021/07/21 04:46:38;;;;;;;11.07;6.72;;;;;;;;;;5031188;28;20112;-67
2021/07/21 04:49:04;;;;;;;11.63;6.72;;;;;;;;;;5032993;28;20017;-67
2021/07/21 04:51:31;;;;;;;10.00;6.55;;;;;;;;;;5034223;28;20029;-67
2021/07/21 04:53:59;;;;;;;10.90;6.25;;;;;;;;;;5035672;28;20040;-66
2021/07/21 04:56:26;;;;;;;8.18;5.55;;;;;;;;;;5020076;28;20108;-67
2021/07/21 04:58:52;;;;;;;8.95;6.45;;;;;;;;;;5035152;28;20025;-67
2021/07/21 05:01:18;;;;;;;11.57;5.68;;;;;;;;;;5035486;28;20026;-67
2021/07/21 05:03:44;;;;;;;9.05;6.38;;;;;;;;;;5035891;28;20037;-67
2021/07/21 05:06:10;;;;;;;9.63;6.30;;;;;;;;;;5035824;28;20030;-66
2021/07/21 05:08:36;;;;;;;9.32;6.18;;;;;;;;;;5035462;28;20097;-66
2021/07/21 05:11:02;;;;;;;8.35;6.13;;;;;;;;;;5037009;28;20173;-67
2021/07/21 05:13:28;;;;;;;9.77;6.15;;;;;;;;;;5042073;28;20136;-67
2021/07/21 05:15:54;;;;;;;7.82;5.80;;;;;;;;;;5043208;28;20468;-67
2021/07/21 05:18:20;;;;;;;7.15;5.90;;;;;;;;;;5034814;28;20029;-67
2021/07/21 05:20:46;;;;;;;7.25;6.50;;;;;;;;;;5035520;28;20025;-67
2021/07/21 05:23:13;;;;;;;9.20;6.38;;;;;;;;;;5035270;28;20029;-66
2021/07/21 05:25:40;;;;;;;7.30;5.90;;;;;;;;;;5035083;28;20028;-67
2021/07/21 05:28:06;;;;;;;8.90;6.65;;;;;;;;;;5035787;28;20040;-66
2021/07/21 05:30:33;;;;;;;8.27;6.35;;;;;;;;;;5035035;28;20029;-68
2021/07/21 05:32:59;;;;;;;8.45;6.57;;;;;;;;;;5035154;28;20113;-67
2021/07/21 05:35:25;;;;;;;7.68;5.97;;;;;;;;;;5033318;28;20048;-66
2021/07/21 05:37:51;;;;;;;9.38;6.47;;;;;;;;;;5030089;28;20033;-69
2021/07/21 05:40:17;;;;;;;10.48;6.75;;;;;;;;;;5034305;28;20060;-68
2021/07/21 05:42:43;;;;;;;9.93;6.32;;;;;;;;;;5034684;28;20037;-68
2021/07/21 05:45:09;;;;;;;9.48;6.40;;;;;;;;;;5034635;28;20468;-68
2021/07/21 05:47:35;;;;;;;8.68;6.32;;;;;;;;;;5035055;28;20067;-68
2021/07/21 05:50:02;;;;;;;9.48;5.78;;;;;;;;;;5035126;28;20103;-68
2021/07/21 05:52:28;;;;;;;9.15;6.20;;;;;;;;;;5035160;28;20029;-68
2021/07/21 05:54:54;;;;;;;12.07;6.22;;;;;;;;;;5034606;28;20033;-69
2021/07/21 05:57:20;;;;;;;9.30;5.93;;;;;;;;;;5034839;28;20040;-68
2021/07/21 05:59:46;;;;;;;12.05;6.35;;;;;;;;;;5034457;28;20384;-68
2021/07/21 06:02:12;;;;;;;8.38;6.30;;;;;;;;;;5034734;28;20026;-68
2021/07/21 06:04:38;;;;;;;9.00;6.22;;;;;;;;;;5034510;28;20029;-68
2021/07/21 06:07:10;;;;;;;8.70;6.70;;;;;;;;;;5036479;28;20391;-69
2021/07/21 06:09:36;;;;;;;10.48;6.40;;;;;;;;;;5033729;28;20025;-69
2021/07/21 06:12:02;;;;;;;12.00;6.75;;;;;;;;;;5034061;28;20032;-69
2021/07/21 06:14:29;;;;;;;11.70;6.20;;;;;;;;;;5034736;28;20033;-68
2021/07/21 06:16:56;;;;;;;7.72;6.25;;;;;;;;;;5034495;28;20045;-67
2021/07/21 06:19:22;;;;;;;11.70;6.50;;;;;;;;;;5034441;28;20040;-67
2021/07/21 06:21:48;;;;;;;8.57;6.05;;;;;;;;;;5034733;28;20029;-68
2021/07/21 06:24:14;;;;;;;10.13;7.32;;;;;;;;;;5034688;28;20083;-69
2021/07/21 06:26:41;;;;;;;10.40;6.20;;;;;;;;;;5033757;28;20032;-69
2021/07/21 06:29:07;;;;;;;9.32;6.43;;;;;;;;;;5034407;28;20078;-69
2021/07/21 06:31:34;;;;;;;9.75;6.53;;;;;;;;;;5034283;28;20395;-68
2021/07/21 06:34:00;;;;;;;9.35;6.40;;;;;;;;;;5032937;28;20029;-69
2021/07/21 06:36:26;;;;;;;9.60;6.57;;;;;;;;;;5025768;28;20037;-69
2021/07/21 06:38:53;;;;;;;13.07;6.40;;;;;;;;;;5033813;28;20096;-69
2021/07/21 06:41:19;;;;;;;12.30;6.32;;;;;;;;;;5034308;28;20022;-69
2021/07/21 06:43:47;;;;;;;9.25;5.57;;;;;;;;;;5033598;28;20041;-68
2021/07/21 06:46:14;;;;;;;6.82;5.40;;;;;;;;;;5034103;28;20071;-69
2021/07/21 06:48:40;;;;;;;7.07;4.95;;;;;;;;;;5032758;28;20025;-68
2021/07/21 06:51:06;;;;;;;10.13;5.97;;;;;;;;;;5016417;28;20029;-69
2021/07/21 06:53:32;;;;;;;11.07;5.97;;;;;;;;;;5033223;28;20032;-69
2021/07/21 06:55:58;;;;;;;8.68;6.22;;;;;;;;;;5034191;28;20029;-69
2021/07/21 06:58:24;;;;;;;10.70;5.63;;;;;;;;;;5033304;28;20025;-69
2021/07/21 07:00:51;;;;;;;11.50;6.93;;;;;;;;;;5032512;28;20021;-69
2021/07/21 07:03:17;;;;;;;9.05;5.57;;;;;;;;;;5033664;28;20064;-69
2021/07/21 07:05:43;;;;;;;5.95;5.32;;;;;;;;;;5033210;28;20059;-69
2021/07/21 07:08:09;;;;;;;7.72;5.57;;;;;;;;;;5033252;28;20380;-69
2021/07/21 07:10:35;;;;;;;11.55;6.10;;;;;;;;;;5033578;28;20029;-69
2021/07/21 07:13:02;;;;;;;7.97;5.63;;;;;;;;;;5025647;28;20484;-69
2021/07/21 07:15:28;;;;;;;9.57;5.30;;;;;;;;;;5023984;28;20056;-69
2021/07/21 07:17:54;;;;;;;7.75;4.93;;;;;;;;;;5026349;28;20018;-70
2021/07/21 07:20:20;;;;;;;6.53;4.97;;;;;;;;;;4998909;28;20029;-70
2021/07/21 07:22:46;;;;;;;9.38;5.75;;;;;;;;;;5015789;28;20021;-70
2021/07/21 07:25:12;;;;;;;7.95;4.78;;;;;;;;;;5016253;28;20025;-69
2021/07/21 07:27:39;;;;;;;8.60;5.28;;;;;;;;;;5011501;28;20036;-69
2021/07/21 07:30:05;;;;;;;6.65;5.20;;;;;;;;;;5024602;28;20029;-69
2021/07/21 07:32:32;;;;;;;7.53;5.10;;;;;;;;;;5016136;28;20022;-69
2021/07/21 07:34:58;;;;;;;10.50;5.45;;;;;;;;;;5016283;28;20075;-69
2021/07/21 07:37:24;;;;;;;7.60;5.20;;;;;;;;;;5016737;28;20061;-72
2021/07/21 07:39:50;;;;;;;8.15;5.32;;;;;;;;;;5028805;28;20128;-69
2021/07/21 07:42:16;;;;;;;12.73;5.03;;;;;;;;;;5024631;28;20026;-70
2021/07/21 07:44:42;;;;;;;7.22;5.20;;;;;;;;;;5024299;28;20547;-68
2021/07/21 07:47:09;;;;;;;8.10;4.88;;;;;;;;;;5029317;28;20033;-69
2021/07/21 07:49:35;;;;;;;9.32;5.90;;;;;;;;;;5022269;28;20049;-69
2021/07/21 07:52:01;;;;;;;8.65;5.38;;;;;;;;;;5018683;28;20072;-69
2021/07/21 07:54:27;;;;;;;10.13;5.78;;;;;;;;;;5030043;28;20029;-68
2021/07/21 07:56:53;;;;;;;9.05;5.22;;;;;;;;;;5030957;28;20041;-66
2021/07/21 07:59:19;;;;;;;7.72;5.00;;;;;;;;;;5028023;28;20093;-67
2021/07/21 08:01:45;;;;;;;6.55;5.38;;;;;;;;;;5013193;28;20052;-66
2021/07/21 08:04:11;;;;;;;6.43;4.80;;;;;;;;;;5015936;28;20026;-68
2021/07/21 08:06:37;;;;;;;7.45;4.95;;;;;;;;;;5015211;28;20034;-70
2021/07/21 08:09:12;;;;;;;7.53;5.20;;;;;;;;;;5023000;28;20029;-67
2021/07/21 08:11:38;;;;;;;7.97;5.13;;;;;;;;;;5017479;28;20048;-68
2021/07/21 08:14:04;;;;;;;7.05;4.30;;;;;;;;;;5023942;28;20022;-68
2021/07/21 08:16:30;;;;;;;6.22;4.30;;;;;;;;;;5027906;28;20037;-69
2021/07/21 08:18:56;;;;;;;6.47;4.15;;;;;;;;;;5024900;28;20025;-68
2021/07/21 08:21:22;;;;;;;4.55;3.97;;;;;;;;;;5028971;28;20111;-70
2021/07/21 08:23:48;;;;;;;6.18;4.63;;;;;;;;;;5024440;28;20030;-69
2021/07/21 08:26:14;;;;;;;4.85;4.35;;;;;;;;;;5031157;28;20025;-70
2021/07/21 08:28:40;;;;;;;7.28;4.30;;;;;;;;;;5030597;28;20105;-70
2021/07/21 08:31:06;;;;;;;9.60;4.40;;;;;;;;;;5029101;28;20473;-69
2021/07/21 08:33:32;;;;;;;10.20;5.03;;;;;;;;;;5020006;28;20084;-69
2021/07/21 08:35:58;;;;;;;5.97;4.47;;;;;;;;;;5012708;28;20087;-68
2021/07/21 08:38:25;;;;;;;7.68;4.18;;;;;;;;;;5020799;28;20028;-70
2021/07/21 08:40:53;;;;;;;4.63;3.90;;;;;;;;;;5029252;28;20064;-69
2021/07/21 08:43:20;;;;;;;9.15;3.75;;;;;;;;;;5023691;28;20116;-69
2021/07/21 08:45:46;;;;;;;11.07;4.60;;;;;;;;;;5023109;28;20036;-69
2021/07/21 08:48:13;;;;;;;5.90;4.55;;;;;;;;;;5016935;28;20025;-69
2021/07/21 08:50:40;;;;;;;5.97;4.03;;;;;;;;;;5017442;28;20061;-69
2021/07/21 08:53:06;;;;;;;6.22;3.85;;;;;;;;;;5022450;28;20029;-69
2021/07/21 08:55:32;;;;;;;6.45;4.47;;;;;;;;;;5021626;28;20026;-70
2021/07/21 08:57:59;;;;;;;6.53;4.40;;;;;;;;;;5023103;28;20025;-70
2021/07/21 09:00:25;;;;;;;5.75;3.78;;;;;;;;;;5029250;28;20025;-69
2021/07/21 09:02:52;;;;;;;8.98;4.60;;;;;;;;;;5022725;28;20029;-70
2021/07/21 09:05:19;;;;;;;9.40;3.78;;;;;;;;;;5022455;28;20036;-69
2021/07/21 09:07:47;;;;;;;9.68;4.40;;;;;;;;;;5013180;28;20033;-68
2021/07/21 09:10:14;;;;;;;4.45;4.00;;;;;;;;;;5023005;28;20024;-69
2021/07/21 09:12:42;;;;;;;7.10;4.63;;;;;;;;;;5024661;28;20451;-70
2021/07/21 09:15:08;;;;;;;10.80;4.40;;;;;;;;;;5030145;28;20017;-68
2021/07/21 09:17:35;;;;;;;8.05;4.10;;;;;;;;;;5030765;28;20037;-67
2021/07/21 09:20:01;;;;;;;8.43;3.92;;;;;;;;;;5023033;28;20388;-68
2021/07/21 09:22:29;;;;;;;11.48;4.10;;;;;;;;;;4993476;28;20026;-68
2021/07/21 09:25:14;;;;;;;11.00;4.03;;;;;;;;;;5029392;28;20515;-68
2021/07/21 09:27:41;;;;;;;5.63;3.47;;;;;;;;;;5030692;28;20541;-68
2021/07/21 09:30:08;;;;;;;8.52;4.07;;;;;;;;;;5028304;28;20038;-68
2021/07/21 09:32:56;;;;;;;7.97;3.70;;;;;;;;;;5016223;28;20114;-69
2021/07/21 09:35:23;;;;;;;5.90;3.63;;;;;;;;;;5022147;28;20487;-68
2021/07/21 09:37:49;;;;;;;5.15;3.60;;;;;;;;;;5025092;28;20041;-70
2021/07/21 09:40:15;;;;;;;6.38;3.90;;;;;;;;;;5024214;28;20036;-68
2021/07/21 09:42:42;;;;;;;5.95;3.20;;;;;;;;;;5032901;28;20033;-69
2021/07/21 09:45:09;;;;;;;6.40;3.25;;;;;;;;;;5024871;28;20041;-71
2021/07/21 09:47:39;;;;;;;4.97;3.38;;;;;;;;;;5027647;28;20112;-69
2021/07/21 09:50:35;;;;;;;6.70;3.45;;;;;;;;;;5020187;28;20025;-68
2021/07/21 09:53:04;;;;;;;6.20;3.83;;;;;;;;;;5031809;28;20100;-68
2021/07/21 09:55:31;;;;;;;6.50;3.28;;;;;;;;;;5030268;28;20040;-68
2021/07/21 09:58:00;;;;;;;4.43;3.00;;;;;;;;;;5026852;28;20030;-68
2021/07/21 10:00:30;;;;;;;7.43;3.38;;;;;;;;;;5022705;28;20088;-68
2021/07/21 10:03:15;;;;;;;4.97;3.20;;;;;;;;;;5027579;28;20022;-67
2021/07/21 10:05:56;;;;;;;4.28;3.13;;;;;;;;;;5025778;28;20036;-69
2021/07/21 10:08:47;;;;;;;5.18;3.17;;;;;;;;;;5027165;28;20041;-68
2021/07/21 10:11:22;;;;;;;7.15;3.13;;;;;;;;;;5016630;28;20457;-68
2021/07/21 10:13:49;;;;;;;6.53;3.20;;;;;;;;;;5028984;28;20037;-68
2021/07/21 10:16:34;;;;;;;5.78;3.70;;;;;;;;;;5016834;28;20037;-69
2021/07/21 10:19:01;;;;;;;6.25;3.25;;;;;;;;;;5014402;28;20489;-68
2021/07/21 10:21:27;;;;;;;5.13;3.88;;;;;;;;;;5018068;28;20515;-69
2021/07/21 10:23:53;;;;;;;8.73;3.92;;;;;;;;;;5006245;28;20034;-68
2021/07/21 10:26:19;;;;;;;5.68;3.28;;;;;;;;;;5031285;28;20036;-68
2021/07/21 10:28:46;;;;;;;5.30;2.95;;;;;;;;;;5017702;28;20080;-69
2021/07/21 10:31:12;;;;;;;4.65;3.30;;;;;;;;;;5030285;28;20018;-68
2021/07/21 10:33:38;;;;;;;7.82;3.53;;;;;;;;;;5026552;28;20511;-68
2021/07/21 10:36:05;;;;;;;11.57;3.47;;;;;;;;;;5023525;28;20022;-68
2021/07/21 10:38:31;;;;;;;6.32;3.78;;;;;;;;;;5019791;28;20018;-68
2021/07/21 10:40:58;;;;;;;7.72;3.67;;;;;;;;;;5021319;28;20026;-67
2021/07/21 10:43:28;;;;;;;7.32;3.55;;;;;;;;;;5021866;28;20042;-68
2021/07/21 10:45:54;;;;;;;4.93;3.00;;;;;;;;;;5028628;28;20469;-69
2021/07/21 10:48:40;;;;;;;5.45;3.80;;;;;;;;;;5017757;28;20120;-68
2021/07/21 10:51:17;;;;;;;5.43;3.30;;;;;;;;;;5021266;28;20192;-68
2021/07/21 10:59:13;;;;;;;5.15;3.83;;;;;;;;;;5022536;28;20041;-68
2021/07/21 11:01:40;;;;;;;6.22;3.65;;;;;;;;;;5025668;28;20438;-68
2021/07/21 11:04:06;;;;;;;5.13;3.08;;;;;;;;;;5024080;28;20041;-68
2021/07/21 11:06:41;;;;;;;5.38;3.00;;;;;;;;;;5026096;28;20030;-68
2021/07/21 11:09:14;;;;;;;4.75;3.38;;;;;;;;;;5031995;28;20029;-69
2021/07/21 11:11:40;;;;;;;7.68;3.03;;;;;;;;;;5025919;28;20061;-69
2021/07/21 11:14:09;;;;;;;7.78;3.88;;;;;;;;;;5022142;28;20515;-69
2021/07/21 11:16:45;;;;;;;6.85;3.25;;;;;;;;;;5024730;28;20421;-69
2021/07/21 11:19:25;;;;;;;7.22;3.60;;;;;;;;;;5031082;28;20034;-68
2021/07/21 11:22:02;;;;;;;5.03;3.53;;;;;;;;;;5023316;28;20681;-68
2021/07/21 11:24:29;;;;;;;5.78;3.10;;;;;;;;;;5028893;28;20064;-68
2021/07/21 11:26:56;;;;;;;7.15;3.53;;;;;;;;;;5019640;28;20101;-68
2021/07/21 11:29:24;;;;;;;6.45;3.97;;;;;;;;;;5031539;28;20033;-68
2021/07/21 11:31:50;;;;;;;9.68;3.42;;;;;;;;;;5025866;28;20033;-68
2021/07/21 11:34:33;;;;;;;7.18;3.40;;;;;;;;;;5031629;28;20061;-69
2021/07/21 11:37:00;;;;;;;7.38;3.30;;;;;;;;;;5008182;28;20451;-68
2021/07/21 11:39:45;;;;;;;5.82;3.05;;;;;;;;;;5017305;28;20377;-67
2021/07/21 11:42:13;;;;;;;;;;;;;;;;;;5030377;28;20029;-68
2021/07/21 11:44:40;;;;;;;6.00;3.10;;;;;;;;;;5021726;28;19920;-68
2021/07/21 11:47:13;;;;;;;7.13;3.38;;;;;;;;;;5030484;28;20025;-68
2021/07/21 11:49:46;;;;;;;6.38;2.92;;;;;;;;;;5022672;28;20425;-69
2021/07/21 11:52:14;;;;;;;6.35;3.55;;;;;;;;;;5024119;28;20571;-68
2021/07/21 11:54:41;;;;;;;7.90;3.75;;;;;;;;;;5029499;28;20527;-68
2021/07/21 11:57:11;;;;;;;6.68;3.35;;;;;;;;;;5024882;28;20040;-69
2021/07/21 11:59:37;;;;;;;4.20;3.40;;;;;;;;;;5021838;28;20389;-69
2021/07/21 12:02:19;;;;;;;6.05;3.15;;;;;;;;;;5029836;28;20029;-68
2021/07/21 12:04:47;;;;;;;7.32;3.42;;;;;;;;;;5024152;28;20380;-69
2021/07/21 12:07:14;;;;;;;5.70;3.30;;;;;;;;;;5031393;28;20021;-68
2021/07/21 12:09:41;;;;;;;7.18;3.08;;;;;;;;;;5030012;28;20029;-68
2021/07/21 12:12:15;;;;;;;5.78;3.05;;;;;;;;;;5015483;28;20386;-68
2021/07/21 12:14:41;;;;;;;6.45;3.35;;;;;;;;;;5022136;28;20281;-68
2021/07/21 12:17:10;;;;;;;4.47;2.97;;;;;;;;;;5023602;28;20108;-68
2021/07/21 12:19:55;;;;;;;7.03;3.45;;;;;;;;;;5023505;28;20507;-68
2021/07/21 12:22:22;;;;;;;5.10;3.13;;;;;;;;;;5015964;28;20057;-68
2021/07/21 12:24:52;;;;;;;7.55;3.65;;;;;;;;;;5019168;28;20045;-68
2021/07/21 12:27:22;;;;;;;6.05;3.20;;;;;;;;;;5013887;28;20037;-68
2021/07/21 12:29:49;;;;;;;5.80;2.88;;;;;;;;;;5019749;28;20025;-69
2021/07/21 12:32:17;;;;;;;4.53;3.38;;;;;;;;;;5021927;28;20392;-68
2021/07/21 12:37:13;;;;;;;4.60;3.00;;;;;;;;;;5022134;28;20044;-68
2021/07/21 12:39:40;;;;;;;7.22;3.20;;;;;;;;;;5014492;28;20025;-69
2021/07/21 12:42:08;;;;;;;6.80;3.40;;;;;;;;;;5022813;28;20033;-68
2021/07/21 12:44:51;;;;;;;3.72;3.00;;;;;;;;;;5020221;28;20021;-68
2021/07/21 12:47:24;;;;;;;10.43;4.13;;;;;;;;;;5011753;28;20036;-68
2021/07/21 12:49:54;;;;;;;4.00;3.33;;;;;;;;;;5024187;28;20037;-69
2021/07/21 12:52:22;;;;;;;4.07;3.03;;;;;;;;;;4995060;28;20052;-69
2021/07/21 12:54:52;;;;;;;4.72;3.53;;;;;;;;;;5011376;28;20388;-68
2021/07/21 12:57:33;;;;;;;9.68;4.20;;;;;;;;;;5016004;28;20038;-69
2021/07/21 13:00:08;;;;;;;7.95;3.50;;;;;;;;;;5012109;28;20072;-68
2021/07/21 13:02:34;;;;;;;4.07;3.35;;;;;;;;;;5012796;28;20017;-68
2021/07/21 13:05:01;;;;;;;6.05;3.30;;;;;;;;;;5010505;28;20022;-69
2021/07/21 13:07:27;;;;;;;4.78;3.42;;;;;;;;;;5010636;28;20034;-68
2021/07/21 13:09:54;;;;;;;8.52;3.72;;;;;;;;;;5016966;28;20025;-69
2021/07/21 13:12:20;;;;;;;5.68;3.38;;;;;;;;;;5031276;28;20449;-68
2021/07/21 13:14:59;;;;;;;5.47;3.58;;;;;;;;;;5021680;28;20108;-69
2021/07/21 13:17:28;;;;;;;6.35;3.00;;;;;;;;;;5029161;28;20484;-69
2021/07/21 13:20:06;;;;;;;5.03;3.25;;;;;;;;;;5025578;28;20030;-68
2021/07/21 13:22:32;;;;;;;7.07;3.10;;;;;;;;;;5022601;28;20033;-68
2021/07/21 13:24:58;;;;;;;4.50;3.13;;;;;;;;;;5034530;28;20022;-68
2021/07/21 13:27:30;;;;;;;5.65;3.38;;;;;;;;;;5034687;28;20029;-69
2021/07/21 13:29:57;;;;;;;4.03;2.90;;;;;;;;;;5034792;28;20026;-69
2021/07/21 13:32:25;;;;;;;4.32;2.75;;;;;;;;;;5034572;28;20025;-68
2021/07/21 13:35:01;;;;;;;4.43;3.28;;;;;;;;;;5032610;28;20034;-69
2021/07/21 13:37:28;;;;;;;4.65;2.80;;;;;;;;;;5014310;28;20034;-68
2021/07/21 13:40:02;;;;;;;4.38;3.05;;;;;;;;;;5023707;28;20036;-70
2021/07/21 13:42:28;;;;;;;3.75;2.95;;;;;;;;;;5019284;28;20049;-68
2021/07/21 13:45:04;;;;;;;4.38;3.05;;;;;;;;;;5025270;28;20048;-68
2021/07/21 13:47:31;;;;;;;5.07;3.38;;;;;;;;;;5022843;28;20049;-68
2021/07/21 13:50:07;;;;;;;7.95;3.05;;;;;;;;;;5014519;28;20029;-70
2021/07/21 13:52:33;;;;;;;6.85;2.88;;;;;;;;;;5015117;28;20030;-67
2021/07/21 13:55:00;;;;;;;4.38;2.88;;;;;;;;;;5014431;28;20025;-69
2021/07/21 13:57:27;;;;;;;4.80;2.88;;;;;;;;;;5014445;28;20385;-69
2021/07/21 13:59:54;;;;;;;3.47;2.58;;;;;;;;;;5015888;28;20111;-70
2021/07/21 14:02:25;;;;;;;4.18;3.30;;;;;;;;;;5017761;28;20196;-70
2021/07/21 14:04:52;;;;;;;3.78;3.00;;;;;;;;;;5016969;28;20018;-70
2021/07/21 14:07:18;;;;;;;4.40;3.03;;;;;;;;;;5014094;28;20362;-71
2021/07/21 14:09:44;;;;;;;4.50;3.20;;;;;;;;;;5014136;28;20030;-68
2021/07/21 14:12:10;;;;;;;6.55;3.10;;;;;;;;;;5014099;28;20033;-70
2021/07/21 14:14:36;;;;;;;3.30;2.92;;;;;;;;;;5014011;28;20137;-70
2021/07/21 14:17:03;;;;;;;4.70;3.20;;;;;;;;;;5013822;28;20034;-70
2021/07/21 14:19:30;;;;;;;5.35;2.97;;;;;;;;;;5014017;28;20022;-70
2021/07/21 14:21:57;;;;;;;9.07;3.30;;;;;;;;;;5013720;28;20060;-69
2021/07/21 14:24:23;;;;;;;4.85;2.67;;;;;;;;;;5013834;28;20389;-70
2021/07/21 14:26:50;;;;;;;3.80;2.72;;;;;;;;;;5013851;28;20030;-68
2021/07/21 14:29:16;;;;;;;5.28;3.60;;;;;;;;;;5013776;28;20080;-68
2021/07/21 14:31:42;;;;;;;6.90;3.00;;;;;;;;;;5013500;28;20183;-70
2021/07/21 14:34:11;;;;;;;4.68;2.80;;;;;;;;;;5013649;28;20033;-70
2021/07/21 14:36:37;;;;;;;4.82;3.08;;;;;;;;;;5013191;28;20026;-70
2021/07/21 14:39:05;;;;;;;3.83;2.67;;;;;;;;;;5013524;28;20022;-71
2021/07/21 14:41:35;;;;;;;5.90;2.97;;;;;;;;;;5024218;28;20022;-69
2021/07/21 14:44:02;;;;;;;10.07;2.88;;;;;;;;;;5026197;28;20057;-69
2021/07/21 14:46:28;;;;;;;4.15;2.88;;;;;;;;;;5012397;28;20025;-70
2021/07/21 14:48:54;;;;;;;4.03;2.90;;;;;;;;;;5012295;28;20056;-70
2021/07/21 14:51:20;;;;;;;5.00;2.60;;;;;;;;;;5012387;28;20376;-69
2021/07/21 14:53:47;;;;;;;5.18;2.60;;;;;;;;;;5012277;28;20030;-70
2021/07/21 14:56:13;;;;;;;6.05;3.15;;;;;;;;;;5016440;28;20014;-71